sensor_id;sensor_type;location;lat;lon;timestamp;P1;durP1;ratioP1;P2;durP2;ratioP2
8254;SDS011;4167;48.162;11.542;2023-04-21T00:02:13;271.57;;;72.47;;
8254;SDS011;4167;48.162;11.542;2023-04-21T00:04:39;227.53;;;70.13;;
8254;SDS011;4167;48.162;11.542;2023-04-21T00:07:06;235.33;;;70.97;;
8254;SDS011;4167;48.162;11.542;2023-04-21T00:09:33;333.90;;;76.67;;
8254;SDS011;4167;48.162;11.542;2023-04-21T00:12:00;243.80;;;69.87;;
8254;SDS011;4167;48.162;11.542;2023-04-21T00:14:27;301.63;;;75.03;;
8254;SDS011;4167;48.162;11.542;2023-04-21T00:16:53;324.17;;;77.17;;
8254;SDS011;4167;48.162;11.542;2023-04-21T00:19:20;338.87;;;76.40;;
8254;SDS011;4167;48.162;11.542;2023-04-21T00:21:47;325.03;;;77.37;;
8254;SDS011;4167;48.162;11.542;2023-04-21T00:24:14;262.30;;;74.07;;
8254;SDS011;4167;48.162;11.542;2023-04-21T00:26:41;253.30;;;71.03;;
8254;SDS011;4167;48.162;11.542;2023-04-21T00:29:08;255.33;;;71.07;;
8254;SDS011;4167;48.162;11.542;2023-04-21T00:31:35;250.97;;;71.00;;
8254;SDS011;4167;48.162;11.542;2023-04-21T00:34:01;254.63;;;69.30;;
8254;SDS011;4167;48.162;11.542;2023-04-21T00:36:28;309.37;;;72.33;;
8254;SDS011;4167;48.162;11.542;2023-04-21T00:38:54;207.57;;;68.00;;
8254;SDS011;4167;48.162;11.542;2023-04-21T00:41:21;385.50;;;80.07;;
8254;SDS011;4167;48.162;11.542;2023-04-21T00:44:00;246.63;;;70.63;;
8254;SDS011;4167;48.162;11.542;2023-04-21T00:46:28;303.57;;;74.63;;
8254;SDS011;4167;48.162;11.542;2023-04-21T00:48:55;239.90;;;69.23;;
8254;SDS011;4167;48.162;11.542;2023-04-21T00:51:22;270.37;;;72.73;;
8254;SDS011;4167;48.162;11.542;2023-04-21T00:53:48;251.10;;;73.07;;
8254;SDS011;4167;48.162;11.542;2023-04-21T00:56:16;237.13;;;70.97;;
8254;SDS011;4167;48.162;11.542;2023-04-21T00:58:43;231.07;;;70.70;;
8254;SDS011;4167;48.162;11.542;2023-04-21T01:01:11;295.83;;;75.43;;
8254;SDS011;4167;48.162;11.542;2023-04-21T01:03:39;318.60;;;79.23;;
8254;SDS011;4167;48.162;11.542;2023-04-21T01:06:06;243.13;;;72.33;;
8254;SDS011;4167;48.162;11.542;2023-04-21T01:08:33;316.40;;;77.60;;
8254;SDS011;4167;48.162;11.542;2023-04-21T01:11:00;389.07;;;80.37;;
8254;SDS011;4167;48.162;11.542;2023-04-21T01:13:26;336.87;;;79.63;;
8254;SDS011;4167;48.162;11.542;2023-04-21T01:15:53;263.13;;;74.27;;
8254;SDS011;4167;48.162;11.542;2023-04-21T01:18:19;292.53;;;76.10;;
8254;SDS011;4167;48.162;11.542;2023-04-21T01:20:47;268.63;;;73.63;;
8254;SDS011;4167;48.162;11.542;2023-04-21T01:23:15;308.53;;;77.67;;
8254;SDS011;4167;48.162;11.542;2023-04-21T01:25:42;304.50;;;75.90;;
8254;SDS011;4167;48.162;11.542;2023-04-21T01:28:09;268.00;;;72.30;;
8254;SDS011;4167;48.162;11.542;2023-04-21T01:30:46;249.73;;;71.93;;
8254;SDS011;4167;48.162;11.542;2023-04-21T01:33:14;299.97;;;76.30;;
8254;SDS011;4167;48.162;11.542;2023-04-21T01:35:41;219.47;;;69.53;;
8254;SDS011;4167;48.162;11.542;2023-04-21T01:38:07;323.93;;;77.10;;
8254;SDS011;4167;48.162;11.542;2023-04-21T01:40:35;291.97;;;74.43;;
8254;SDS011;4167;48.162;11.542;2023-04-21T01:43:02;281.67;;;73.40;;
8254;SDS011;4167;48.162;11.542;2023-04-21T01:45:29;261.27;;;71.50;;
8254;SDS011;4167;48.162;11.542;2023-04-21T01:47:55;267.10;;;72.47;;
8254;SDS011;4167;48.162;11.542;2023-04-21T01:50:21;290.73;;;73.50;;
8254;SDS011;4167;48.162;11.542;2023-04-21T01:52:48;222.93;;;69.00;;
8254;SDS011;4167;48.162;11.542;2023-04-21T01:55:14;316.27;;;77.27;;
8254;SDS011;4167;48.162;11.542;2023-04-21T01:57:42;238.40;;;71.80;;
8254;SDS011;4167;48.162;11.542;2023-04-21T02:00:09;257.33;;;71.40;;
8254;SDS011;4167;48.162;11.542;2023-04-21T02:02:37;240.50;;;72.80;;
8254;SDS011;4167;48.162;11.542;2023-04-21T02:05:03;243.80;;;70.70;;
8254;SDS011;4167;48.162;11.542;2023-04-21T02:07:31;319.47;;;77.10;;
8254;SDS011;4167;48.162;11.542;2023-04-21T02:09:57;217.90;;;68.93;;
8254;SDS011;4167;48.162;11.542;2023-04-21T02:12:23;260.57;;;71.33;;
8254;SDS011;4167;48.162;11.542;2023-04-21T02:14:51;289.20;;;74.47;;
8254;SDS011;4167;48.162;11.542;2023-04-21T02:17:18;259.97;;;73.80;;
8254;SDS011;4167;48.162;11.542;2023-04-21T02:19:44;262.47;;;72.13;;
8254;SDS011;4167;48.162;11.542;2023-04-21T02:22:11;255.77;;;71.93;;
8254;SDS011;4167;48.162;11.542;2023-04-21T02:24:38;236.93;;;71.07;;
8254;SDS011;4167;48.162;11.542;2023-04-21T02:27:05;224.67;;;71.97;;
8254;SDS011;4167;48.162;11.542;2023-04-21T02:29:31;303.67;;;73.93;;
8254;SDS011;4167;48.162;11.542;2023-04-21T02:31:59;241.97;;;71.33;;
8254;SDS011;4167;48.162;11.542;2023-04-21T02:34:25;321.97;;;76.67;;
8254;SDS011;4167;48.162;11.542;2023-04-21T02:36:52;220.87;;;69.77;;
8254;SDS011;4167;48.162;11.542;2023-04-21T02:39:18;281.13;;;74.83;;
8254;SDS011;4167;48.162;11.542;2023-04-21T02:41:45;255.63;;;72.77;;
8254;SDS011;4167;48.162;11.542;2023-04-21T02:44:11;272.67;;;74.67;;
8254;SDS011;4167;48.162;11.542;2023-04-21T02:46:38;254.53;;;73.63;;
8254;SDS011;4167;48.162;11.542;2023-04-21T02:49:06;252.27;;;74.13;;
8254;SDS011;4167;48.162;11.542;2023-04-21T02:51:33;318.37;;;78.83;;
8254;SDS011;4167;48.162;11.542;2023-04-21T02:53:59;306.13;;;75.03;;
8254;SDS011;4167;48.162;11.542;2023-04-21T02:56:26;351.33;;;79.27;;
8254;SDS011;4167;48.162;11.542;2023-04-21T02:58:53;341.40;;;79.27;;
8254;SDS011;4167;48.162;11.542;2023-04-21T03:01:20;302.17;;;77.40;;
8254;SDS011;4167;48.162;11.542;2023-04-21T03:03:46;290.57;;;77.00;;
8254;SDS011;4167;48.162;11.542;2023-04-21T03:06:14;252.87;;;73.73;;
8254;SDS011;4167;48.162;11.542;2023-04-21T03:08:40;326.87;;;78.43;;
8254;SDS011;4167;48.162;11.542;2023-04-21T03:11:07;313.30;;;76.97;;
8254;SDS011;4167;48.162;11.542;2023-04-21T03:13:33;282.53;;;75.10;;
8254;SDS011;4167;48.162;11.542;2023-04-21T03:16:00;323.57;;;78.70;;
8254;SDS011;4167;48.162;11.542;2023-04-21T03:18:26;257.33;;;73.57;;
8254;SDS011;4167;48.162;11.542;2023-04-21T03:20:57;314.77;;;78.03;;
8254;SDS011;4167;48.162;11.542;2023-04-21T03:23:25;263.90;;;72.90;;
8254;SDS011;4167;48.162;11.542;2023-04-21T03:25:52;253.43;;;74.30;;
8254;SDS011;4167;48.162;11.542;2023-04-21T03:28:18;347.87;;;80.63;;
8254;SDS011;4167;48.162;11.542;2023-04-21T03:30:45;313.17;;;78.27;;
8254;SDS011;4167;48.162;11.542;2023-04-21T03:33:11;273.90;;;74.37;;
8254;SDS011;4167;48.162;11.542;2023-04-21T03:35:38;302.03;;;77.37;;
8254;SDS011;4167;48.162;11.542;2023-04-21T03:38:04;255.57;;;74.60;;
8254;SDS011;4167;48.162;11.542;2023-04-21T03:40:32;290.37;;;75.70;;
8254;SDS011;4167;48.162;11.542;2023-04-21T03:42:58;261.27;;;73.93;;
8254;SDS011;4167;48.162;11.542;2023-04-21T03:45:25;345.80;;;80.13;;
8254;SDS011;4167;48.162;11.542;2023-04-21T03:47:52;276.03;;;75.03;;
8254;SDS011;4167;48.162;11.542;2023-04-21T03:50:19;244.80;;;72.03;;
8254;SDS011;4167;48.162;11.542;2023-04-21T03:52:46;232.97;;;69.80;;
8254;SDS011;4167;48.162;11.542;2023-04-21T03:55:12;263.43;;;75.47;;
8254;SDS011;4167;48.162;11.542;2023-04-21T03:57:40;361.70;;;80.17;;
8254;SDS011;4167;48.162;11.542;2023-04-21T04:00:08;351.60;;;81.17;;
8254;SDS011;4167;48.162;11.542;2023-04-21T04:02:35;294.27;;;75.77;;
8254;SDS011;4167;48.162;11.542;2023-04-21T04:05:02;254.13;;;72.67;;
8254;SDS011;4167;48.162;11.542;2023-04-21T04:07:29;359.07;;;81.37;;
8254;SDS011;4167;48.162;11.542;2023-04-21T04:09:56;290.57;;;76.07;;
8254;SDS011;4167;48.162;11.542;2023-04-21T04:12:23;375.83;;;81.67;;
8254;SDS011;4167;48.162;11.542;2023-04-21T04:14:51;231.67;;;72.57;;
8254;SDS011;4167;48.162;11.542;2023-04-21T04:17:17;259.63;;;75.20;;
8254;SDS011;4167;48.162;11.542;2023-04-21T04:19:44;293.67;;;74.83;;
8254;SDS011;4167;48.162;11.542;2023-04-21T04:22:10;307.53;;;77.73;;
8254;SDS011;4167;48.162;11.542;2023-04-21T04:24:36;475.43;;;90.27;;
8254;SDS011;4167;48.162;11.542;2023-04-21T04:27:03;299.93;;;75.73;;
8254;SDS011;4167;48.162;11.542;2023-04-21T04:29:31;354.93;;;81.43;;
8254;SDS011;4167;48.162;11.542;2023-04-21T04:31:59;321.47;;;77.60;;
8254;SDS011;4167;48.162;11.542;2023-04-21T04:34:28;371.60;;;81.10;;
8254;SDS011;4167;48.162;11.542;2023-04-21T04:36:54;261.90;;;74.20;;
8254;SDS011;4167;48.162;11.542;2023-04-21T04:39:21;287.80;;;76.97;;
8254;SDS011;4167;48.162;11.542;2023-04-21T04:41:48;253.07;;;74.10;;
8254;SDS011;4167;48.162;11.542;2023-04-21T04:44:16;299.43;;;77.50;;
8254;SDS011;4167;48.162;11.542;2023-04-21T04:46:43;268.43;;;76.97;;
8254;SDS011;4167;48.162;11.542;2023-04-21T04:49:11;251.73;;;76.17;;
8254;SDS011;4167;48.162;11.542;2023-04-21T04:51:37;294.67;;;78.20;;
8254;SDS011;4167;48.162;11.542;2023-04-21T04:54:04;297.10;;;78.30;;
8254;SDS011;4167;48.162;11.542;2023-04-21T04:56:30;375.43;;;81.60;;
8254;SDS011;4167;48.162;11.542;2023-04-21T04:58:57;304.20;;;77.30;;
8254;SDS011;4167;48.162;11.542;2023-04-21T05:01:23;356.13;;;83.90;;
8254;SDS011;4167;48.162;11.542;2023-04-21T05:03:54;276.43;;;75.30;;
8254;SDS011;4167;48.162;11.542;2023-04-21T05:06:22;344.77;;;82.33;;
8254;SDS011;4167;48.162;11.542;2023-04-21T05:08:48;392.40;;;86.63;;
8254;SDS011;4167;48.162;11.542;2023-04-21T05:11:14;445.13;;;86.73;;
8254;SDS011;4167;48.162;11.542;2023-04-21T05:13:41;434.63;;;86.83;;
8254;SDS011;4167;48.162;11.542;2023-04-21T05:16:09;455.47;;;89.40;;
8254;SDS011;4167;48.162;11.542;2023-04-21T05:18:35;485.87;;;93.03;;
8254;SDS011;4167;48.162;11.542;2023-04-21T05:21:02;369.70;;;83.43;;
8254;SDS011;4167;48.162;11.542;2023-04-21T05:23:30;382.27;;;82.83;;
8254;SDS011;4167;48.162;11.542;2023-04-21T05:25:56;296.40;;;76.37;;
8254;SDS011;4167;48.162;11.542;2023-04-21T05:28:23;342.87;;;78.67;;
8254;SDS011;4167;48.162;11.542;2023-04-21T05:30:50;339.63;;;79.60;;
8254;SDS011;4167;48.162;11.542;2023-04-21T05:33:16;442.23;;;87.13;;
8254;SDS011;4167;48.162;11.542;2023-04-21T05:35:43;416.23;;;83.77;;
8254;SDS011;4167;48.162;11.542;2023-04-21T05:38:09;338.50;;;79.27;;
8254;SDS011;4167;48.162;11.542;2023-04-21T05:40:37;474.97;;;90.50;;
8254;SDS011;4167;48.162;11.542;2023-04-21T05:43:04;309.90;;;77.03;;
8254;SDS011;4167;48.162;11.542;2023-04-21T05:45:30;423.73;;;85.07;;
8254;SDS011;4167;48.162;11.542;2023-04-21T05:47:57;347.97;;;80.13;;
8254;SDS011;4167;48.162;11.542;2023-04-21T05:50:23;382.83;;;85.67;;
8254;SDS011;4167;48.162;11.542;2023-04-21T05:52:52;325.13;;;77.60;;
8254;SDS011;4167;48.162;11.542;2023-04-21T05:55:19;384.30;;;83.20;;
8254;SDS011;4167;48.162;11.542;2023-04-21T05:57:46;345.60;;;79.90;;
8254;SDS011;4167;48.162;11.542;2023-04-21T06:00:13;411.73;;;84.13;;
8254;SDS011;4167;48.162;11.542;2023-04-21T06:02:41;558.90;;;93.53;;
8254;SDS011;4167;48.162;11.542;2023-04-21T06:05:07;415.27;;;83.60;;
8254;SDS011;4167;48.162;11.542;2023-04-21T06:07:34;432.87;;;84.77;;
8254;SDS011;4167;48.162;11.542;2023-04-21T06:10:02;400.87;;;83.03;;
8254;SDS011;4167;48.162;11.542;2023-04-21T06:12:28;465.97;;;90.60;;
8254;SDS011;4167;48.162;11.542;2023-04-21T06:14:56;502.37;;;90.17;;
8254;SDS011;4167;48.162;11.542;2023-04-21T06:17:23;375.47;;;80.13;;
8254;SDS011;4167;48.162;11.542;2023-04-21T06:19:49;366.40;;;89.13;;
8254;SDS011;4167;48.162;11.542;2023-04-21T06:22:17;435.20;;;84.37;;
8254;SDS011;4167;48.162;11.542;2023-04-21T06:24:44;380.77;;;80.70;;
8254;SDS011;4167;48.162;11.542;2023-04-21T06:27:10;463.70;;;85.77;;
8254;SDS011;4167;48.162;11.542;2023-04-21T06:29:37;355.60;;;78.70;;
8254;SDS011;4167;48.162;11.542;2023-04-21T06:32:05;402.17;;;82.80;;
8254;SDS011;4167;48.162;11.542;2023-04-21T06:34:32;333.20;;;79.07;;
8254;SDS011;4167;48.162;11.542;2023-04-21T06:36:58;323.40;;;76.88;;
8254;SDS011;4167;48.162;11.542;2023-04-21T06:39:25;343.70;;;79.35;;
8254;SDS011;4167;48.162;11.542;2023-04-21T06:41:51;359.95;;;81.68;;
8254;SDS011;4167;48.162;11.542;2023-04-21T06:44:18;373.33;;;80.65;;
8254;SDS011;4167;48.162;11.542;2023-04-21T06:46:44;337.77;;;79.70;;
8254;SDS011;4167;48.162;11.542;2023-04-21T06:49:12;299.38;;;77.93;;
8254;SDS011;4167;48.162;11.542;2023-04-21T06:51:39;347.17;;;81.40;;
8254;SDS011;4167;48.162;11.542;2023-04-21T06:54:06;280.90;;;79.35;;
8254;SDS011;4167;48.162;11.542;2023-04-21T06:56:32;284.48;;;79.47;;
8254;SDS011;4167;48.162;11.542;2023-04-21T06:58:59;353.60;;;82.80;;
8254;SDS011;4167;48.162;11.542;2023-04-21T07:01:25;301.83;;;80.63;;
8254;SDS011;4167;48.162;11.542;2023-04-21T07:03:52;315.25;;;82.13;;
8254;SDS011;4167;48.162;11.542;2023-04-21T07:06:20;291.02;;;79.30;;
8254;SDS011;4167;48.162;11.542;2023-04-21T07:08:46;331.73;;;81.30;;
8254;SDS011;4167;48.162;11.542;2023-04-21T07:11:13;336.55;;;81.43;;
8254;SDS011;4167;48.162;11.542;2023-04-21T07:13:39;308.33;;;78.18;;
8254;SDS011;4167;48.162;11.542;2023-04-21T07:16:06;344.55;;;81.03;;
8254;SDS011;4167;48.162;11.542;2023-04-21T07:18:32;318.58;;;79.00;;
8254;SDS011;4167;48.162;11.542;2023-04-21T07:20:59;290.27;;;76.82;;
8254;SDS011;4167;48.162;11.542;2023-04-21T07:23:27;299.00;;;77.07;;
8254;SDS011;4167;48.162;11.542;2023-04-21T07:25:53;368.58;;;79.60;;
8254;SDS011;4167;48.162;11.542;2023-04-21T07:28:20;377.90;;;79.38;;
8254;SDS011;4167;48.162;11.542;2023-04-21T07:30:46;360.53;;;77.90;;
8254;SDS011;4167;48.162;11.542;2023-04-21T07:33:13;337.90;;;76.47;;
8254;SDS011;4167;48.162;11.542;2023-04-21T07:35:40;355.30;;;78.03;;
8254;SDS011;4167;48.162;11.542;2023-04-21T07:38:06;322.77;;;74.80;;
8254;SDS011;4167;48.162;11.542;2023-04-21T07:40:34;339.57;;;73.80;;
8254;SDS011;4167;48.162;11.542;2023-04-21T07:43:00;460.67;;;79.00;;
8254;SDS011;4167;48.162;11.542;2023-04-21T07:45:28;444.57;;;78.57;;
8254;SDS011;4167;48.162;11.542;2023-04-21T07:47:55;341.57;;;73.00;;
8254;SDS011;4167;48.162;11.542;2023-04-21T07:50:21;311.07;;;72.70;;
8254;SDS011;4167;48.162;11.542;2023-04-21T07:52:48;354.10;;;74.10;;
8254;SDS011;4167;48.162;11.542;2023-04-21T07:55:14;300.30;;;73.17;;
8254;SDS011;4167;48.162;11.542;2023-04-21T07:57:42;364.27;;;76.27;;
8254;SDS011;4167;48.162;11.542;2023-04-21T08:00:09;402.40;;;77.57;;
8254;SDS011;4167;48.162;11.542;2023-04-21T08:02:37;339.67;;;74.33;;
8254;SDS011;4167;48.162;11.542;2023-04-21T08:05:03;395.43;;;78.27;;
8254;SDS011;4167;48.162;11.542;2023-04-21T08:07:30;271.10;;;70.30;;
8254;SDS011;4167;48.162;11.542;2023-04-21T08:09:57;296.60;;;72.78;;
8254;SDS011;4167;48.162;11.542;2023-04-21T08:12:24;290.20;;;72.82;;
8254;SDS011;4167;48.162;11.542;2023-04-21T08:14:52;383.38;;;78.72;;
8254;SDS011;4167;48.162;11.542;2023-04-21T08:17:18;301.05;;;75.65;;
8254;SDS011;4167;48.162;11.542;2023-04-21T08:19:45;357.95;;;78.55;;
8254;SDS011;4167;48.162;11.542;2023-04-21T08:22:11;261.63;;;72.63;;
8254;SDS011;4167;48.162;11.542;2023-04-21T08:24:38;284.55;;;73.57;;
8254;SDS011;4167;48.162;11.542;2023-04-21T08:27:04;338.45;;;77.43;;
8254;SDS011;4167;48.162;11.542;2023-04-21T08:29:31;288.23;;;74.17;;
8254;SDS011;4167;48.162;11.542;2023-04-21T08:31:59;295.67;;;72.83;;
8254;SDS011;4167;48.162;11.542;2023-04-21T08:34:25;333.67;;;75.33;;
8254;SDS011;4167;48.162;11.542;2023-04-21T08:36:52;379.87;;;77.23;;
8254;SDS011;4167;48.162;11.542;2023-04-21T08:39:19;337.27;;;75.23;;
8254;SDS011;4167;48.162;11.542;2023-04-21T08:41:46;348.73;;;74.80;;
8254;SDS011;4167;48.162;11.542;2023-04-21T08:44:12;261.63;;;68.57;;
8254;SDS011;4167;48.162;11.542;2023-04-21T08:46:39;301.30;;;70.60;;
8254;SDS011;4167;48.162;11.542;2023-04-21T08:49:08;308.70;;;70.63;;
8254;SDS011;4167;48.162;11.542;2023-04-21T08:51:35;426.33;;;79.10;;
8254;SDS011;4167;48.162;11.542;2023-04-21T08:54:02;278.67;;;69.07;;
8254;SDS011;4167;48.162;11.542;2023-04-21T08:56:28;310.27;;;70.53;;
8254;SDS011;4167;48.162;11.542;2023-04-21T08:58:55;395.87;;;74.30;;
8254;SDS011;4167;48.162;11.542;2023-04-21T09:01:21;334.50;;;72.27;;
8254;SDS011;4167;48.162;11.542;2023-04-21T09:03:48;388.50;;;74.03;;
8254;SDS011;4167;48.162;11.542;2023-04-21T09:06:15;319.23;;;71.43;;
8254;SDS011;4167;48.162;11.542;2023-04-21T09:08:42;403.60;;;75.07;;
8254;SDS011;4167;48.162;11.542;2023-04-21T09:11:12;374.73;;;72.93;;
8254;SDS011;4167;48.162;11.542;2023-04-21T09:13:41;398.23;;;74.60;;
8254;SDS011;4167;48.162;11.542;2023-04-21T09:16:13;342.17;;;71.97;;
8254;SDS011;4167;48.162;11.542;2023-04-21T09:18:41;323.50;;;71.17;;
8254;SDS011;4167;48.162;11.542;2023-04-21T09:21:09;431.63;;;77.00;;
8254;SDS011;4167;48.162;11.542;2023-04-21T09:23:44;315.57;;;69.87;;
8254;SDS011;4167;48.162;11.542;2023-04-21T09:26:12;337.23;;;70.13;;
8254;SDS011;4167;48.162;11.542;2023-04-21T09:28:40;385.80;;;74.73;;
8254;SDS011;4167;48.162;11.542;2023-04-21T09:31:11;369.27;;;74.07;;
8254;SDS011;4167;48.162;11.542;2023-04-21T09:33:39;315.73;;;70.00;;
8254;SDS011;4167;48.162;11.542;2023-04-21T09:36:10;345.43;;;71.27;;
8254;SDS011;4167;48.162;11.542;2023-04-21T09:38:47;279.30;;;67.60;;
8254;SDS011;4167;48.162;11.542;2023-04-21T09:41:21;322.43;;;71.57;;
8254;SDS011;4167;48.162;11.542;2023-04-21T09:43:47;307.03;;;70.07;;
8254;SDS011;4167;48.162;11.542;2023-04-21T09:46:14;353.43;;;72.63;;
8254;SDS011;4167;48.162;11.542;2023-04-21T09:48:43;319.53;;;69.87;;
8254;SDS011;4167;48.162;11.542;2023-04-21T09:51:11;430.47;;;75.43;;
8254;SDS011;4167;48.162;11.542;2023-04-21T09:53:38;281.13;;;67.90;;
8254;SDS011;4167;48.162;11.542;2023-04-21T09:56:07;319.47;;;71.73;;
8254;SDS011;4167;48.162;11.542;2023-04-21T09:58:38;369.40;;;73.97;;
8254;SDS011;4167;48.162;11.542;2023-04-21T10:01:06;383.77;;;73.10;;
8254;SDS011;4167;48.162;11.542;2023-04-21T10:03:33;324.83;;;67.97;;
8254;SDS011;4167;48.162;11.542;2023-04-21T10:06:00;468.97;;;76.53;;
8254;SDS011;4167;48.162;11.542;2023-04-21T10:08:27;354.47;;;71.50;;
8254;SDS011;4167;48.162;11.542;2023-04-21T10:10:54;452.77;;;73.80;;
8254;SDS011;4167;48.162;11.542;2023-04-21T10:13:21;312.87;;;66.60;;
8254;SDS011;4167;48.162;11.542;2023-04-21T10:15:49;317.47;;;67.73;;
8254;SDS011;4167;48.162;11.542;2023-04-21T10:18:27;420.90;;;73.63;;
8254;SDS011;4167;48.162;11.542;2023-04-21T10:20:54;412.30;;;74.20;;
8254;SDS011;4167;48.162;11.542;2023-04-21T10:23:24;331.83;;;68.80;;
8254;SDS011;4167;48.162;11.542;2023-04-21T10:25:52;404.57;;;71.43;;
8254;SDS011;4167;48.162;11.542;2023-04-21T10:28:19;355.30;;;70.47;;
8254;SDS011;4167;48.162;11.542;2023-04-21T10:30:47;315.40;;;69.87;;
8254;SDS011;4167;48.162;11.542;2023-04-21T10:33:13;401.67;;;76.00;;
8254;SDS011;4167;48.162;11.542;2023-04-21T10:35:57;303.50;;;69.27;;
8254;SDS011;4167;48.162;11.542;2023-04-21T10:38:33;293.03;;;67.77;;
8254;SDS011;4167;48.162;11.542;2023-04-21T10:41:07;381.80;;;72.10;;
8254;SDS011;4167;48.162;11.542;2023-04-21T10:43:51;308.23;;;71.03;;
8254;SDS011;4167;48.162;11.542;2023-04-21T10:46:31;318.20;;;69.60;;
8254;SDS011;4167;48.162;11.542;2023-04-21T10:49:09;328.00;;;69.27;;
8254;SDS011;4167;48.162;11.542;2023-04-21T10:54:35;280.07;;;69.37;;
8254;SDS011;4167;48.162;11.542;2023-04-21T10:57:06;272.07;;;68.67;;
8254;SDS011;4167;48.162;11.542;2023-04-21T10:59:34;260.73;;;68.60;;
8254;SDS011;4167;48.162;11.542;2023-04-21T11:02:02;373.13;;;73.77;;
8254;SDS011;4167;48.162;11.542;2023-04-21T11:04:29;253.30;;;67.00;;
8254;SDS011;4167;48.162;11.542;2023-04-21T11:07:06;338.63;;;71.00;;
8254;SDS011;4167;48.162;11.542;2023-04-21T11:09:33;336.87;;;71.97;;
8254;SDS011;4167;48.162;11.542;2023-04-21T11:12:00;420.60;;;76.00;;
8254;SDS011;4167;48.162;11.542;2023-04-21T11:14:27;302.60;;;70.03;;
8254;SDS011;4167;48.162;11.542;2023-04-21T11:16:53;405.40;;;75.87;;
8254;SDS011;4167;48.162;11.542;2023-04-21T11:19:23;334.47;;;71.77;;
8254;SDS011;4167;48.162;11.542;2023-04-21T11:21:50;311.60;;;68.97;;
8254;SDS011;4167;48.162;11.542;2023-04-21T11:24:18;349.53;;;70.63;;
8254;SDS011;4167;48.162;11.542;2023-04-21T11:26:45;307.00;;;68.33;;
8254;SDS011;4167;48.162;11.542;2023-04-21T11:29:12;266.53;;;66.53;;
8254;SDS011;4167;48.162;11.542;2023-04-21T11:31:39;245.27;;;64.53;;
8254;SDS011;4167;48.162;11.542;2023-04-21T11:34:08;320.87;;;70.20;;
8254;SDS011;4167;48.162;11.542;2023-04-21T11:36:37;317.70;;;69.17;;
8254;SDS011;4167;48.162;11.542;2023-04-21T11:39:05;293.10;;;69.83;;
8254;SDS011;4167;48.162;11.542;2023-04-21T11:41:34;260.03;;;66.27;;
8254;SDS011;4167;48.162;11.542;2023-04-21T11:44:00;385.63;;;73.07;;
8254;SDS011;4167;48.162;11.542;2023-04-21T11:46:27;324.57;;;72.63;;
8254;SDS011;4167;48.162;11.542;2023-04-21T11:48:57;318.60;;;68.67;;
8254;SDS011;4167;48.162;11.542;2023-04-21T11:51:24;299.80;;;68.43;;
8254;SDS011;4167;48.162;11.542;2023-04-21T11:53:53;307.17;;;66.00;;
8254;SDS011;4167;48.162;11.542;2023-04-21T11:56:19;299.63;;;66.97;;
8254;SDS011;4167;48.162;11.542;2023-04-21T11:58:47;252.90;;;65.77;;
8254;SDS011;4167;48.162;11.542;2023-04-21T12:01:15;297.63;;;70.53;;
8254;SDS011;4167;48.162;11.542;2023-04-21T12:03:48;339.90;;;72.50;;
8254;SDS011;4167;48.162;11.542;2023-04-21T12:06:19;367.00;;;74.70;;
8254;SDS011;4167;48.162;11.542;2023-04-21T12:08:46;228.87;;;64.93;;
8254;SDS011;4167;48.162;11.542;2023-04-21T12:11:16;299.03;;;66.57;;
8254;SDS011;4167;48.162;11.542;2023-04-21T12:13:43;331.30;;;71.03;;
8254;SDS011;4167;48.162;11.542;2023-04-21T12:16:11;300.87;;;70.57;;
8254;SDS011;4167;48.162;11.542;2023-04-21T12:18:37;261.30;;;67.20;;
8254;SDS011;4167;48.162;11.542;2023-04-21T12:21:04;399.57;;;72.33;;
8254;SDS011;4167;48.162;11.542;2023-04-21T12:23:30;319.73;;;67.50;;
8254;SDS011;4167;48.162;11.542;2023-04-21T12:25:57;350.20;;;71.43;;
8254;SDS011;4167;48.162;11.542;2023-04-21T12:28:26;267.00;;;66.73;;
8254;SDS011;4167;48.162;11.542;2023-04-21T12:30:52;332.10;;;69.67;;
8254;SDS011;4167;48.162;11.542;2023-04-21T12:33:18;260.50;;;66.70;;
8254;SDS011;4167;48.162;11.542;2023-04-21T12:35:45;259.93;;;66.27;;
8254;SDS011;4167;48.162;11.542;2023-04-21T12:38:12;328.90;;;67.87;;
8254;SDS011;4167;48.162;11.542;2023-04-21T12:40:38;293.87;;;67.40;;
8254;SDS011;4167;48.162;11.542;2023-04-21T12:43:05;285.07;;;64.73;;
8254;SDS011;4167;48.162;11.542;2023-04-21T12:45:33;304.23;;;65.70;;
8254;SDS011;4167;48.162;11.542;2023-04-21T12:47:59;255.87;;;63.20;;
8254;SDS011;4167;48.162;11.542;2023-04-21T12:50:27;254.63;;;61.77;;
8254;SDS011;4167;48.162;11.542;2023-04-21T12:52:54;281.67;;;63.87;;
8254;SDS011;4167;48.162;11.542;2023-04-21T12:55:20;392.00;;;70.13;;
8254;SDS011;4167;48.162;11.542;2023-04-21T12:57:47;392.60;;;69.00;;
8254;SDS011;4167;48.162;11.542;2023-04-21T13:00:15;390.50;;;69.47;;
8254;SDS011;4167;48.162;11.542;2023-04-21T13:02:45;279.60;;;63.27;;
8254;SDS011;4167;48.162;11.542;2023-04-21T13:05:12;296.27;;;63.60;;
8254;SDS011;4167;48.162;11.542;2023-04-21T13:07:39;267.10;;;62.13;;
8254;SDS011;4167;48.162;11.542;2023-04-21T13:10:06;315.10;;;64.70;;
8254;SDS011;4167;48.162;11.542;2023-04-21T13:12:32;304.07;;;63.97;;
8254;SDS011;4167;48.162;11.542;2023-04-21T13:14:59;308.90;;;64.40;;
8254;SDS011;4167;48.162;11.542;2023-04-21T13:17:26;279.77;;;62.90;;
8254;SDS011;4167;48.162;11.542;2023-04-21T13:19:54;325.57;;;65.43;;
8254;SDS011;4167;48.162;11.542;2023-04-21T13:22:21;349.30;;;68.00;;
8254;SDS011;4167;48.162;11.542;2023-04-21T13:24:47;301.90;;;64.17;;
8254;SDS011;4167;48.162;11.542;2023-04-21T13:27:14;308.00;;;65.03;;
8254;SDS011;4167;48.162;11.542;2023-04-21T13:29:40;221.70;;;59.83;;
8254;SDS011;4167;48.162;11.542;2023-04-21T13:32:07;324.70;;;65.70;;
8254;SDS011;4167;48.162;11.542;2023-04-21T13:34:34;261.47;;;63.63;;
8254;SDS011;4167;48.162;11.542;2023-04-21T13:37:02;362.27;;;68.30;;
8254;SDS011;4167;48.162;11.542;2023-04-21T13:39:29;280.73;;;63.47;;
8254;SDS011;4167;48.162;11.542;2023-04-21T13:41:57;282.73;;;63.13;;
8254;SDS011;4167;48.162;11.542;2023-04-21T13:44:23;274.83;;;63.00;;
8254;SDS011;4167;48.162;11.542;2023-04-21T13:46:50;256.47;;;62.00;;
8254;SDS011;4167;48.162;11.542;2023-04-21T13:49:17;228.57;;;61.40;;
8254;SDS011;4167;48.162;11.542;2023-04-21T13:51:44;299.93;;;64.30;;
8254;SDS011;4167;48.162;11.542;2023-04-21T13:54:12;252.20;;;62.20;;
8254;SDS011;4167;48.162;11.542;2023-04-21T13:56:39;209.60;;;60.60;;
8254;SDS011;4167;48.162;11.542;2023-04-21T13:59:05;368.37;;;68.90;;
8254;SDS011;4167;48.162;11.542;2023-04-21T14:01:34;284.33;;;64.67;;
8254;SDS011;4167;48.162;11.542;2023-04-21T14:04:02;316.50;;;66.33;;
8254;SDS011;4167;48.162;11.542;2023-04-21T14:06:29;274.60;;;63.70;;
8254;SDS011;4167;48.162;11.542;2023-04-21T14:08:55;245.03;;;62.63;;
8254;SDS011;4167;48.162;11.542;2023-04-21T14:11:23;271.30;;;63.17;;
8254;SDS011;4167;48.162;11.542;2023-04-21T14:13:50;240.73;;;62.03;;
8254;SDS011;4167;48.162;11.542;2023-04-21T14:16:16;293.43;;;64.20;;
8254;SDS011;4167;48.162;11.542;2023-04-21T14:18:42;209.83;;;60.43;;
8254;SDS011;4167;48.162;11.542;2023-04-21T14:21:11;331.93;;;67.43;;
8254;SDS011;4167;48.162;11.542;2023-04-21T14:23:37;328.47;;;66.97;;
8254;SDS011;4167;48.162;11.542;2023-04-21T14:26:04;259.70;;;63.13;;